Madison Plateau, WY

3:39 AM MST on January 23, 2017 (GMT -0700)
Yellowstone | | Change Station
Active Advisory: Winter Weather Advisory

Elev 6650 ft 44.69 °N, 111.12 °W | Updated 34 minutes ago

Overcast
Overcast
21 °F
Feels Like 21 °F
N
0
Wind Variable Wind from North

Today
High -- | Low -- °F
--% Chance of Precip.
Yesterday
High -- | Low -- °F
Precip. -- in
Pressure 29.61 in
Visibility 10.0 miles
Clouds Overcast 2000 ft
Dew Point 19 °F
Humidity 93%
Rainfall 0.00 in
Snow Depth Not available.
7:50 AM 5:21 PM
Waning Crescent, 19% visible
METAR KWYS 231005Z AUTO 00000KT 10SM OVC020 M06/M07 A2961 RMK AO2
Pressure 29.61 in
Visibility 10.0 miles
Clouds Overcast 2000 ft
Dew Point 19 °F
Humidity 93%
Rainfall 0.00 in
Snow Depth Not available.
7:50 AM 5:21 PM
Waning Crescent, 19% visible
METAR KWYS 231005Z AUTO 00000KT 10SM OVC020 M06/M07 A2961 RMK AO2

Get Your Daily Forecast Email!

Thanks for signing up!

Be on the lookout for a verification email in your inbox.

You'll start receiving the daily forecast at 8 AM.

×

10-Day Weather Forecast

Almanac

Astronomy

Jan. 23, 2017 Rise Set
Actual Time
Civil Twilight
Nautical Twilight
Astronomical Twilight
Moon
Length of Visible Light
Length of Day
Tomorrow will be .
, % of the Moon is Illuminated

Today's Extremes

State Highs State Lows

Community

WunderPhotos

Upload Photos

1,962,540 photos uploaded!

WunderBlog® & News

Nearby

Air Quality

  Air Quality AQ Index Pollutant
Not available.

Snow Depth

Station Depth Elevation

Earthquake Activity

City Distance Mag. Time & Date
Minimum magnitude displayed is 2.5.

Coastal Water Temperatures

Place Temperature

Stations

Nearby Weather Stations

Station Location Temp. Windchill Dew Point Humidity Wind Precip. Elev Updated Type
                   

Watches & Warnings

Winter Weather Advisory
Issued: 8:09 PM MST Jan. 22, 2017 – National Weather Service

... Winter Weather Advisory remains in effect until 5 PM MST
Monday...

* timing... periods of light to moderate snow through the day
Monday. Snow is expected to taper to very light snow or stop
during Monday evening.

* Snow totals... 1 to 4 inches in the Mammoth and tower falls
areas. Elsewhere 3 to 7 inches in the lower elevations, and 6 to
12 inches in the mountains, with the heaviest snowfall over the
southwest and southern sections of Yellowstone.

* Visibility... under a mile at times in heavier snow.

* Main impact... reduced visibility could be very disorienting to
people recreating in Yellowstone.

Precautionary/preparedness actions...

A Winter Weather Advisory for snow means periods of snow will
cause primarily travel difficulties. Be prepared for snow covered
and slick roads with limited visibilities. Slow down, and allow
extra time to reach your destination. Check the latest Road
conditions at wyoroad.Info or by dialing 5 1 1.